sensor_id;sensor_type;location;lat;lon;timestamp;P1;durP1;ratioP1;P2;durP2;ratioP2
76196;SDS011;64974;53.144;17.962;2023-05-18T00:01:28;6.53;;;1.98;;
76196;SDS011;64974;53.144;17.962;2023-05-18T00:03:54;6.47;;;2.20;;
76196;SDS011;64974;53.144;17.962;2023-05-18T00:06:21;6.05;;;2.13;;
76196;SDS011;64974;53.144;17.962;2023-05-18T00:08:49;6.18;;;2.00;;
76196;SDS011;64974;53.144;17.962;2023-05-18T00:11:15;6.95;;;1.80;;
76196;SDS011;64974;53.144;17.962;2023-05-18T00:13:41;6.68;;;2.30;;
76196;SDS011;64974;53.144;17.962;2023-05-18T00:16:06;6.35;;;2.08;;
76196;SDS011;64974;53.144;17.962;2023-05-18T00:18:31;7.57;;;1.90;;
76196;SDS011;64974;53.144;17.962;2023-05-18T00:20:58;5.35;;;1.70;;
76196;SDS011;64974;53.144;17.962;2023-05-18T00:26:00;4.75;;;1.88;;
76196;SDS011;64974;53.144;17.962;2023-05-18T00:28:26;8.52;;;2.50;;
76196;SDS011;64974;53.144;17.962;2023-05-18T00:30:52;13.10;;;4.03;;
76196;SDS011;64974;53.144;17.962;2023-05-18T00:33:17;7.68;;;2.47;;
76196;SDS011;64974;53.144;17.962;2023-05-18T00:35:42;7.25;;;1.90;;
76196;SDS011;64974;53.144;17.962;2023-05-18T00:38:08;7.65;;;1.80;;
76196;SDS011;64974;53.144;17.962;2023-05-18T00:40:33;7.13;;;1.87;;
76196;SDS011;64974;53.144;17.962;2023-05-18T00:42:58;6.37;;;1.80;;
76196;SDS011;64974;53.144;17.962;2023-05-18T00:45:24;5.03;;;1.95;;
76196;SDS011;64974;53.144;17.962;2023-05-18T00:47:50;5.88;;;2.05;;
76196;SDS011;64974;53.144;17.962;2023-05-18T00:50:16;5.38;;;2.00;;
76196;SDS011;64974;53.144;17.962;2023-05-18T00:52:41;9.85;;;2.38;;
76196;SDS011;64974;53.144;17.962;2023-05-18T00:55:07;4.40;;;1.80;;
76196;SDS011;64974;53.144;17.962;2023-05-18T00:57:33;4.63;;;1.98;;
76196;SDS011;64974;53.144;17.962;2023-05-18T01:00:00;5.40;;;2.13;;
76196;SDS011;64974;53.144;17.962;2023-05-18T01:02:27;5.78;;;2.08;;
76196;SDS011;64974;53.144;17.962;2023-05-18T01:04:54;7.00;;;2.30;;
76196;SDS011;64974;53.144;17.962;2023-05-18T01:07:19;7.20;;;2.03;;
76196;SDS011;64974;53.144;17.962;2023-05-18T01:09:47;5.93;;;2.88;;
76196;SDS011;64974;53.144;17.962;2023-05-18T01:12:17;10.07;;;3.08;;
76196;SDS011;64974;53.144;17.962;2023-05-18T01:20:45;10.82;;;3.47;;
76196;SDS011;64974;53.144;17.962;2023-05-18T01:26:15;5.47;;;2.47;;
76196;SDS011;64974;53.144;17.962;2023-05-18T01:28:48;8.50;;;2.22;;
76196;SDS011;64974;53.144;17.962;2023-05-18T01:31:14;7.60;;;2.67;;
76196;SDS011;64974;53.144;17.962;2023-05-18T01:33:40;7.28;;;2.40;;
76196;SDS011;64974;53.144;17.962;2023-05-18T01:36:06;6.70;;;3.13;;
76196;SDS011;64974;53.144;17.962;2023-05-18T01:38:31;3.92;;;1.88;;
76196;SDS011;64974;53.144;17.962;2023-05-18T01:41:02;7.40;;;2.55;;
76196;SDS011;64974;53.144;17.962;2023-05-18T01:43:36;5.88;;;1.92;;
76196;SDS011;64974;53.144;17.962;2023-05-18T01:48:54;7.63;;;2.20;;
76196;SDS011;64974;53.144;17.962;2023-05-18T01:51:20;4.07;;;1.90;;
76196;SDS011;64974;53.144;17.962;2023-05-18T01:53:52;4.55;;;2.63;;
76196;SDS011;64974;53.144;17.962;2023-05-18T01:56:22;6.50;;;1.75;;
76196;SDS011;64974;53.144;17.962;2023-05-18T01:58:48;6.35;;;2.10;;
76196;SDS011;64974;53.144;17.962;2023-05-18T02:01:14;7.28;;;2.60;;
76196;SDS011;64974;53.144;17.962;2023-05-18T02:03:43;11.18;;;2.95;;
76196;SDS011;64974;53.144;17.962;2023-05-18T02:06:09;10.25;;;4.00;;
76196;SDS011;64974;53.144;17.962;2023-05-18T02:08:34;7.75;;;3.10;;
76196;SDS011;64974;53.144;17.962;2023-05-18T02:11:00;6.35;;;2.53;;
76196;SDS011;64974;53.144;17.962;2023-05-18T02:13:25;5.53;;;2.60;;
76196;SDS011;64974;53.144;17.962;2023-05-18T02:15:51;6.10;;;2.53;;
76196;SDS011;64974;53.144;17.962;2023-05-18T02:18:16;6.95;;;2.55;;
76196;SDS011;64974;53.144;17.962;2023-05-18T02:20:42;4.25;;;2.13;;
76196;SDS011;64974;53.144;17.962;2023-05-18T02:23:07;6.80;;;2.08;;
76196;SDS011;64974;53.144;17.962;2023-05-18T02:25:32;6.70;;;2.03;;
76196;SDS011;64974;53.144;17.962;2023-05-18T02:27:57;8.30;;;2.13;;
76196;SDS011;64974;53.144;17.962;2023-05-18T02:30:23;4.03;;;1.90;;
76196;SDS011;64974;53.144;17.962;2023-05-18T02:32:48;6.80;;;2.00;;
76196;SDS011;64974;53.144;17.962;2023-05-18T02:35:14;4.88;;;1.88;;
76196;SDS011;64974;53.144;17.962;2023-05-18T02:37:41;3.65;;;1.45;;
76196;SDS011;64974;53.144;17.962;2023-05-18T02:40:11;3.85;;;1.30;;
76196;SDS011;64974;53.144;17.962;2023-05-18T02:42:37;3.55;;;1.80;;
76196;SDS011;64974;53.144;17.962;2023-05-18T02:45:03;6.07;;;2.10;;
76196;SDS011;64974;53.144;17.962;2023-05-18T02:47:28;4.13;;;1.63;;
76196;SDS011;64974;53.144;17.962;2023-05-18T02:49:54;4.88;;;1.50;;
76196;SDS011;64974;53.144;17.962;2023-05-18T02:52:19;6.20;;;1.65;;
76196;SDS011;64974;53.144;17.962;2023-05-18T02:54:45;5.25;;;1.88;;
76196;SDS011;64974;53.144;17.962;2023-05-18T02:57:10;5.37;;;2.00;;
76196;SDS011;64974;53.144;17.962;2023-05-18T02:59:36;6.78;;;1.70;;
76196;SDS011;64974;53.144;17.962;2023-05-18T03:02:01;7.50;;;2.03;;
76196;SDS011;64974;53.144;17.962;2023-05-18T03:04:27;4.43;;;1.73;;
76196;SDS011;64974;53.144;17.962;2023-05-18T03:06:52;6.30;;;1.60;;
76196;SDS011;64974;53.144;17.962;2023-05-18T03:09:17;5.57;;;1.55;;
76196;SDS011;64974;53.144;17.962;2023-05-18T03:11:43;3.55;;;1.30;;
76196;SDS011;64974;53.144;17.962;2023-05-18T03:14:09;3.65;;;1.38;;
76196;SDS011;64974;53.144;17.962;2023-05-18T03:16:34;5.60;;;2.28;;
76196;SDS011;64974;53.144;17.962;2023-05-18T03:19:02;3.78;;;1.75;;
76196;SDS011;64974;53.144;17.962;2023-05-18T03:21:28;4.38;;;1.48;;
76196;SDS011;64974;53.144;17.962;2023-05-18T03:23:57;6.00;;;1.58;;
76196;SDS011;64974;53.144;17.962;2023-05-18T03:26:26;4.53;;;1.30;;
76196;SDS011;64974;53.144;17.962;2023-05-18T03:28:54;6.22;;;1.98;;
76196;SDS011;64974;53.144;17.962;2023-05-18T03:31:20;7.07;;;2.08;;
76196;SDS011;64974;53.144;17.962;2023-05-18T03:33:45;6.75;;;1.70;;
76196;SDS011;64974;53.144;17.962;2023-05-18T03:36:11;7.30;;;1.60;;
76196;SDS011;64974;53.144;17.962;2023-05-18T03:38:36;5.15;;;1.75;;
76196;SDS011;64974;53.144;17.962;2023-05-18T03:41:02;3.70;;;1.70;;
76196;SDS011;64974;53.144;17.962;2023-05-18T03:43:27;2.70;;;1.35;;
76196;SDS011;64974;53.144;17.962;2023-05-18T03:45:56;5.85;;;1.83;;
76196;SDS011;64974;53.144;17.962;2023-05-18T03:48:22;3.80;;;1.40;;
76196;SDS011;64974;53.144;17.962;2023-05-18T03:50:48;5.57;;;1.52;;
76196;SDS011;64974;53.144;17.962;2023-05-18T03:53:14;4.72;;;1.77;;
76196;SDS011;64974;53.144;17.962;2023-05-18T03:55:42;5.75;;;1.95;;
76196;SDS011;64974;53.144;17.962;2023-05-18T03:58:08;7.82;;;2.42;;
76196;SDS011;64974;53.144;17.962;2023-05-18T04:00:33;18.30;;;6.40;;
76196;SDS011;64974;53.144;17.962;2023-05-18T04:02:59;21.05;;;7.97;;
76196;SDS011;64974;53.144;17.962;2023-05-18T04:05:27;20.50;;;5.20;;
76196;SDS011;64974;53.144;17.962;2023-05-18T04:07:52;15.95;;;4.35;;
76196;SDS011;64974;53.144;17.962;2023-05-18T04:10:21;18.38;;;5.80;;
76196;SDS011;64974;53.144;17.962;2023-05-18T04:12:47;50.97;;;13.68;;
76196;SDS011;64974;53.144;17.962;2023-05-18T04:15:12;60.00;;;16.88;;
76196;SDS011;64974;53.144;17.962;2023-05-18T04:17:40;42.40;;;11.90;;
76196;SDS011;64974;53.144;17.962;2023-05-18T04:20:10;23.45;;;5.68;;
76196;SDS011;64974;53.144;17.962;2023-05-18T04:22:41;12.43;;;3.33;;
76196;SDS011;64974;53.144;17.962;2023-05-18T04:25:10;9.35;;;3.45;;
76196;SDS011;64974;53.144;17.962;2023-05-18T04:27:36;9.68;;;2.72;;
76196;SDS011;64974;53.144;17.962;2023-05-18T04:32:27;40.78;;;12.85;;
76196;SDS011;64974;53.144;17.962;2023-05-18T04:34:54;33.67;;;8.43;;
76196;SDS011;64974;53.144;17.962;2023-05-18T04:37:22;15.68;;;4.93;;
76196;SDS011;64974;53.144;17.962;2023-05-18T04:39:48;4.22;;;2.00;;
76196;SDS011;64974;53.144;17.962;2023-05-18T04:42:13;8.55;;;2.05;;
76196;SDS011;64974;53.144;17.962;2023-05-18T04:44:42;9.10;;;2.35;;
76196;SDS011;64974;53.144;17.962;2023-05-18T04:47:08;5.57;;;1.98;;
76196;SDS011;64974;53.144;17.962;2023-05-18T04:49:33;6.90;;;2.08;;
76196;SDS011;64974;53.144;17.962;2023-05-18T04:51:59;5.53;;;1.92;;
76196;SDS011;64974;53.144;17.962;2023-05-18T04:54:26;6.65;;;1.60;;
76196;SDS011;64974;53.144;17.962;2023-05-18T04:56:55;4.90;;;1.80;;
76196;SDS011;64974;53.144;17.962;2023-05-18T04:59:20;6.22;;;2.25;;
76196;SDS011;64974;53.144;17.962;2023-05-18T05:01:50;8.27;;;2.13;;
76196;SDS011;64974;53.144;17.962;2023-05-18T05:04:16;5.05;;;1.90;;
76196;SDS011;64974;53.144;17.962;2023-05-18T05:06:41;5.33;;;2.03;;
76196;SDS011;64974;53.144;17.962;2023-05-18T05:09:06;5.85;;;1.52;;
76196;SDS011;64974;53.144;17.962;2023-05-18T05:11:32;4.63;;;1.73;;
76196;SDS011;64974;53.144;17.962;2023-05-18T05:13:57;3.88;;;1.83;;
76196;SDS011;64974;53.144;17.962;2023-05-18T05:16:22;3.60;;;1.98;;
76196;SDS011;64974;53.144;17.962;2023-05-18T05:18:48;3.80;;;1.50;;
76196;SDS011;64974;53.144;17.962;2023-05-18T05:21:13;3.85;;;1.58;;
76196;SDS011;64974;53.144;17.962;2023-05-18T05:23:38;4.30;;;1.52;;
76196;SDS011;64974;53.144;17.962;2023-05-18T05:26:05;5.25;;;1.52;;
76196;SDS011;64974;53.144;17.962;2023-05-18T05:28:30;7.57;;;1.90;;
76196;SDS011;64974;53.144;17.962;2023-05-18T05:30:55;5.88;;;2.10;;
76196;SDS011;64974;53.144;17.962;2023-05-18T05:33:21;4.10;;;1.43;;
76196;SDS011;64974;53.144;17.962;2023-05-18T05:35:46;5.03;;;1.77;;
76196;SDS011;64974;53.144;17.962;2023-05-18T05:38:11;5.63;;;1.70;;
76196;SDS011;64974;53.144;17.962;2023-05-18T05:40:37;3.40;;;1.48;;
76196;SDS011;64974;53.144;17.962;2023-05-18T05:43:03;6.10;;;2.00;;
76196;SDS011;64974;53.144;17.962;2023-05-18T05:45:29;8.45;;;1.83;;
76196;SDS011;64974;53.144;17.962;2023-05-18T05:47:55;3.38;;;1.25;;
76196;SDS011;64974;53.144;17.962;2023-05-18T05:50:20;5.40;;;1.65;;
76196;SDS011;64974;53.144;17.962;2023-05-18T05:52:46;5.35;;;1.55;;
76196;SDS011;64974;53.144;17.962;2023-05-18T05:55:11;5.65;;;2.00;;
76196;SDS011;64974;53.144;17.962;2023-05-18T05:57:36;6.30;;;1.95;;
76196;SDS011;64974;53.144;17.962;2023-05-18T06:00:03;3.55;;;1.50;;
76196;SDS011;64974;53.144;17.962;2023-05-18T06:02:29;5.68;;;1.75;;
76196;SDS011;64974;53.144;17.962;2023-05-18T06:04:55;4.55;;;1.48;;
76196;SDS011;64974;53.144;17.962;2023-05-18T06:07:20;3.07;;;1.20;;
76196;SDS011;64974;53.144;17.962;2023-05-18T06:09:45;4.40;;;1.40;;
76196;SDS011;64974;53.144;17.962;2023-05-18T06:12:11;3.50;;;1.10;;
76196;SDS011;64974;53.144;17.962;2023-05-18T06:14:36;5.43;;;1.42;;
76196;SDS011;64974;53.144;17.962;2023-05-18T06:17:01;7.07;;;1.75;;
76196;SDS011;64974;53.144;17.962;2023-05-18T06:19:27;5.50;;;1.33;;
76196;SDS011;64974;53.144;17.962;2023-05-18T06:21:52;4.15;;;1.05;;
76196;SDS011;64974;53.144;17.962;2023-05-18T06:24:17;2.50;;;1.17;;
76196;SDS011;64974;53.144;17.962;2023-05-18T06:26:43;4.80;;;1.05;;
76196;SDS011;64974;53.144;17.962;2023-05-18T06:29:09;2.90;;;1.02;;
76196;SDS011;64974;53.144;17.962;2023-05-18T06:31:34;3.00;;;1.25;;
76196;SDS011;64974;53.144;17.962;2023-05-18T06:34:00;3.53;;;1.10;;
76196;SDS011;64974;53.144;17.962;2023-05-18T06:36:25;4.00;;;1.15;;
76196;SDS011;64974;53.144;17.962;2023-05-18T06:38:50;3.33;;;1.10;;
76196;SDS011;64974;53.144;17.962;2023-05-18T06:41:16;2.70;;;1.02;;
76196;SDS011;64974;53.144;17.962;2023-05-18T06:43:41;3.28;;;0.98;;
76196;SDS011;64974;53.144;17.962;2023-05-18T06:46:06;5.30;;;1.03;;
76196;SDS011;64974;53.144;17.962;2023-05-18T06:48:32;5.65;;;1.10;;
76196;SDS011;64974;53.144;17.962;2023-05-18T06:50:57;4.28;;;0.93;;
76196;SDS011;64974;53.144;17.962;2023-05-18T06:53:22;3.17;;;1.10;;
76196;SDS011;64974;53.144;17.962;2023-05-18T06:55:48;4.63;;;0.95;;
76196;SDS011;64974;53.144;17.962;2023-05-18T06:58:13;3.00;;;1.00;;
76196;SDS011;64974;53.144;17.962;2023-05-18T07:00:38;4.03;;;0.80;;
76196;SDS011;64974;53.144;17.962;2023-05-18T07:03:04;4.22;;;1.30;;
76196;SDS011;64974;53.144;17.962;2023-05-18T07:05:29;4.23;;;1.23;;
76196;SDS011;64974;53.144;17.962;2023-05-18T07:07:55;1.92;;;0.90;;
76196;SDS011;64974;53.144;17.962;2023-05-18T07:10:20;3.72;;;1.20;;
76196;SDS011;64974;53.144;17.962;2023-05-18T07:12:46;5.32;;;0.90;;
76196;SDS011;64974;53.144;17.962;2023-05-18T07:15:12;3.45;;;0.90;;
76196;SDS011;64974;53.144;17.962;2023-05-18T07:17:37;1.92;;;1.00;;
76196;SDS011;64974;53.144;17.962;2023-05-18T07:20:03;1.90;;;0.90;;
76196;SDS011;64974;53.144;17.962;2023-05-18T07:22:30;1.83;;;0.63;;
76196;SDS011;64974;53.144;17.962;2023-05-18T07:24:56;1.05;;;0.43;;
76196;SDS011;64974;53.144;17.962;2023-05-18T07:27:23;2.40;;;0.75;;
76196;SDS011;64974;53.144;17.962;2023-05-18T07:29:48;3.55;;;0.70;;
76196;SDS011;64974;53.144;17.962;2023-05-18T07:32:13;1.40;;;0.50;;
76196;SDS011;64974;53.144;17.962;2023-05-18T07:34:39;2.10;;;0.75;;
76196;SDS011;64974;53.144;17.962;2023-05-18T07:37:06;1.98;;;0.55;;
76196;SDS011;64974;53.144;17.962;2023-05-18T07:39:32;2.60;;;0.60;;
76196;SDS011;64974;53.144;17.962;2023-05-18T07:41:57;29.08;;;3.08;;
76196;SDS011;64974;53.144;17.962;2023-05-18T07:44:23;3.40;;;0.70;;
76196;SDS011;64974;53.144;17.962;2023-05-18T07:46:49;2.85;;;0.70;;
76196;SDS011;64974;53.144;17.962;2023-05-18T07:49:15;1.67;;;0.75;;
76196;SDS011;64974;53.144;17.962;2023-05-18T07:51:40;1.52;;;0.90;;
76196;SDS011;64974;53.144;17.962;2023-05-18T07:54:06;4.40;;;1.02;;
76196;SDS011;64974;53.144;17.962;2023-05-18T07:56:31;4.53;;;0.90;;
76196;SDS011;64974;53.144;17.962;2023-05-18T07:58:57;1.90;;;0.80;;
76196;SDS011;64974;53.144;17.962;2023-05-18T08:01:22;2.33;;;0.63;;
76196;SDS011;64974;53.144;17.962;2023-05-18T08:03:53;0.95;;;0.40;;
76196;SDS011;64974;53.144;17.962;2023-05-18T08:06:19;2.88;;;0.60;;
76196;SDS011;64974;53.144;17.962;2023-05-18T08:08:45;3.45;;;0.80;;
76196;SDS011;64974;53.144;17.962;2023-05-18T08:11:10;1.95;;;0.65;;
76196;SDS011;64974;53.144;17.962;2023-05-18T08:13:36;1.23;;;0.55;;
76196;SDS011;64974;53.144;17.962;2023-05-18T08:16:01;1.57;;;0.70;;
76196;SDS011;64974;53.144;17.962;2023-05-18T08:18:26;1.52;;;0.85;;
76196;SDS011;64974;53.144;17.962;2023-05-18T08:20:52;3.57;;;0.80;;
76196;SDS011;64974;53.144;17.962;2023-05-18T08:23:18;1.83;;;0.68;;
76196;SDS011;64974;53.144;17.962;2023-05-18T08:25:43;5.88;;;1.02;;
76196;SDS011;64974;53.144;17.962;2023-05-18T08:28:08;1.87;;;0.70;;
76196;SDS011;64974;53.144;17.962;2023-05-18T08:30:34;1.70;;;0.52;;
76196;SDS011;64974;53.144;17.962;2023-05-18T08:32:59;1.75;;;0.63;;
76196;SDS011;64974;53.144;17.962;2023-05-18T08:35:25;1.00;;;0.60;;
76196;SDS011;64974;53.144;17.962;2023-05-18T08:37:51;0.98;;;0.63;;
76196;SDS011;64974;53.144;17.962;2023-05-18T08:40:16;4.97;;;0.82;;
76196;SDS011;64974;53.144;17.962;2023-05-18T08:42:55;1.38;;;0.65;;
76196;SDS011;64974;53.144;17.962;2023-05-18T08:45:45;13.10;;;1.50;;
76196;SDS011;64974;53.144;17.962;2023-05-18T08:48:12;5.20;;;0.88;;
76196;SDS011;64974;53.144;17.962;2023-05-18T08:50:40;2.42;;;0.52;;
76196;SDS011;64974;53.144;17.962;2023-05-18T08:53:06;12.13;;;1.40;;
76196;SDS011;64974;53.144;17.962;2023-05-18T08:55:34;3.47;;;0.90;;
76196;SDS011;64974;53.144;17.962;2023-05-18T08:58:01;2.63;;;0.95;;
76196;SDS011;64974;53.144;17.962;2023-05-18T09:00:28;1.95;;;0.77;;
76196;SDS011;64974;53.144;17.962;2023-05-18T09:02:54;1.95;;;0.90;;
76196;SDS011;64974;53.144;17.962;2023-05-18T09:05:20;1.70;;;0.70;;
76196;SDS011;64974;53.144;17.962;2023-05-18T09:07:45;2.60;;;0.73;;
76196;SDS011;64974;53.144;17.962;2023-05-18T09:10:11;3.38;;;0.75;;
76196;SDS011;64974;53.144;17.962;2023-05-18T09:12:38;3.50;;;0.90;;
76196;SDS011;64974;53.144;17.962;2023-05-18T09:17:29;1.10;;;0.50;;
76196;SDS011;64974;53.144;17.962;2023-05-18T09:19:54;2.45;;;0.65;;
76196;SDS011;64974;53.144;17.962;2023-05-18T09:22:20;14.68;;;1.65;;
76196;SDS011;64974;53.144;17.962;2023-05-18T09:24:45;1.05;;;0.75;;
76196;SDS011;64974;53.144;17.962;2023-05-18T09:27:11;1.90;;;0.73;;
76196;SDS011;64974;53.144;17.962;2023-05-18T09:29:36;3.50;;;0.95;;
76196;SDS011;64974;53.144;17.962;2023-05-18T09:32:15;6.78;;;1.10;;
76196;SDS011;64974;53.144;17.962;2023-05-18T09:34:41;2.35;;;0.80;;
76196;SDS011;64974;53.144;17.962;2023-05-18T09:37:06;1.25;;;0.60;;
76196;SDS011;64974;53.144;17.962;2023-05-18T09:39:33;3.25;;;1.10;;
76196;SDS011;64974;53.144;17.962;2023-05-18T09:41:58;3.95;;;0.80;;
76196;SDS011;64974;53.144;17.962;2023-05-18T09:44:29;2.97;;;0.90;;
76196;SDS011;64974;53.144;17.962;2023-05-18T09:46:57;3.15;;;0.88;;
76196;SDS011;64974;53.144;17.962;2023-05-18T09:49:22;4.57;;;0.90;;
76196;SDS011;64974;53.144;17.962;2023-05-18T09:51:48;4.13;;;0.90;;
76196;SDS011;64974;53.144;17.962;2023-05-18T09:54:13;6.28;;;0.90;;
76196;SDS011;64974;53.144;17.962;2023-05-18T09:56:38;1.95;;;0.80;;
76196;SDS011;64974;53.144;17.962;2023-05-18T09:59:11;2.70;;;1.10;;
76196;SDS011;64974;53.144;17.962;2023-05-18T10:04:20;3.15;;;0.73;;
76196;SDS011;64974;53.144;17.962;2023-05-18T10:06:49;8.48;;;1.58;;
76196;SDS011;64974;53.144;17.962;2023-05-18T10:09:14;2.22;;;0.77;;
76196;SDS011;64974;53.144;17.962;2023-05-18T10:11:40;7.93;;;1.30;;
76196;SDS011;64974;53.144;17.962;2023-05-18T10:14:06;1.52;;;0.73;;
76196;SDS011;64974;53.144;17.962;2023-05-18T10:16:31;1.83;;;0.50;;
76196;SDS011;64974;53.144;17.962;2023-05-18T10:18:57;1.88;;;0.80;;
76196;SDS011;64974;53.144;17.962;2023-05-18T10:21:24;4.68;;;0.65;;
76196;SDS011;64974;53.144;17.962;2023-05-18T10:23:52;17.38;;;1.88;;
76196;SDS011;64974;53.144;17.962;2023-05-18T10:26:18;3.33;;;0.65;;
76196;SDS011;64974;53.144;17.962;2023-05-18T10:28:48;1.65;;;0.70;;
76196;SDS011;64974;53.144;17.962;2023-05-18T10:31:17;3.45;;;0.90;;
76196;SDS011;64974;53.144;17.962;2023-05-18T10:33:42;2.83;;;0.70;;
76196;SDS011;64974;53.144;17.962;2023-05-18T10:38:33;2.93;;;0.90;;
76196;SDS011;64974;53.144;17.962;2023-05-18T10:41:02;1.13;;;0.43;;
76196;SDS011;64974;53.144;17.962;2023-05-18T10:43:29;1.48;;;0.63;;
76196;SDS011;64974;53.144;17.962;2023-05-18T10:46:00;1.90;;;0.60;;
76196;SDS011;64974;53.144;17.962;2023-05-18T10:48:27;2.05;;;0.65;;
76196;SDS011;64974;53.144;17.962;2023-05-18T10:50:54;1.65;;;0.60;;
76196;SDS011;64974;53.144;17.962;2023-05-18T10:53:21;1.90;;;0.80;;
76196;SDS011;64974;53.144;17.962;2023-05-18T10:55:49;1.42;;;0.70;;
76196;SDS011;64974;53.144;17.962;2023-05-18T10:58:22;1.67;;;0.73;;
76196;SDS011;64974;53.144;17.962;2023-05-18T11:00:50;17.55;;;2.03;;
76196;SDS011;64974;53.144;17.962;2023-05-18T11:03:17;1.98;;;0.65;;
76196;SDS011;64974;53.144;17.962;2023-05-18T11:05:47;1.13;;;0.50;;
76196;SDS011;64974;53.144;17.962;2023-05-18T11:08:26;2.22;;;0.60;;
76196;SDS011;64974;53.144;17.962;2023-05-18T11:13:28;1.60;;;0.60;;
76196;SDS011;64974;53.144;17.962;2023-05-18T11:20:58;1.65;;;0.80;;
76196;SDS011;64974;53.144;17.962;2023-05-18T11:25:49;4.63;;;0.80;;
76196;SDS011;64974;53.144;17.962;2023-05-18T11:28:16;18.77;;;1.85;;
76196;SDS011;64974;53.144;17.962;2023-05-18T11:30:46;4.30;;;0.77;;
76196;SDS011;64974;53.144;17.962;2023-05-18T11:33:28;11.43;;;1.40;;
76196;SDS011;64974;53.144;17.962;2023-05-18T11:36:12;5.97;;;1.02;;
76196;SDS011;64974;53.144;17.962;2023-05-18T11:38:45;2.60;;;0.70;;
76196;SDS011;64974;53.144;17.962;2023-05-18T11:46:36;3.03;;;0.93;;
76196;SDS011;64974;53.144;17.962;2023-05-18T11:51:29;2.92;;;1.00;;
76196;SDS011;64974;53.144;17.962;2023-05-18T11:53:56;2.60;;;0.80;;
76196;SDS011;64974;53.144;17.962;2023-05-18T11:56:23;4.10;;;0.90;;
76196;SDS011;64974;53.144;17.962;2023-05-18T11:59:09;2.60;;;0.80;;
76196;SDS011;64974;53.144;17.962;2023-05-18T12:01:36;4.95;;;1.33;;
76196;SDS011;64974;53.144;17.962;2023-05-18T12:04:02;3.58;;;1.05;;
76196;SDS011;64974;53.144;17.962;2023-05-18T12:06:27;2.15;;;0.93;;
76196;SDS011;64974;53.144;17.962;2023-05-18T12:08:53;2.38;;;0.93;;
76196;SDS011;64974;53.144;17.962;2023-05-18T12:11:19;3.25;;;0.80;;
76196;SDS011;64974;53.144;17.962;2023-05-18T12:13:46;2.60;;;0.88;;
76196;SDS011;64974;53.144;17.962;2023-05-18T12:16:12;2.42;;;0.80;;
76196;SDS011;64974;53.144;17.962;2023-05-18T12:18:37;3.22;;;0.70;;
76196;SDS011;64974;53.144;17.962;2023-05-18T12:21:03;7.47;;;1.63;;
76196;SDS011;64974;53.144;17.962;2023-05-18T12:23:35;2.20;;;0.82;;
76196;SDS011;64974;53.144;17.962;2023-05-18T12:26:02;1.73;;;0.77;;
76196;SDS011;64974;53.144;17.962;2023-05-18T12:28:27;2.67;;;0.60;;
76196;SDS011;64974;53.144;17.962;2023-05-18T12:30:54;2.17;;;0.90;;
76196;SDS011;64974;53.144;17.962;2023-05-18T12:33:20;36.15;;;3.42;;
76196;SDS011;64974;53.144;17.962;2023-05-18T12:35:45;3.45;;;1.00;;
76196;SDS011;64974;53.144;17.962;2023-05-18T12:38:11;2.63;;;1.08;;
76196;SDS011;64974;53.144;17.962;2023-05-18T12:40:36;5.13;;;1.00;;
76196;SDS011;64974;53.144;17.962;2023-05-18T12:43:08;2.90;;;0.90;;
76196;SDS011;64974;53.144;17.962;2023-05-18T12:45:33;4.15;;;1.00;;
76196;SDS011;64974;53.144;17.962;2023-05-18T12:48:05;3.10;;;0.80;;
76196;SDS011;64974;53.144;17.962;2023-05-18T12:50:31;2.63;;;0.90;;
76196;SDS011;64974;53.144;17.962;2023-05-18T12:52:57;3.95;;;0.90;;
76196;SDS011;64974;53.144;17.962;2023-05-18T12:55:22;4.57;;;0.90;;
76196;SDS011;64974;53.144;17.962;2023-05-18T12:57:59;2.72;;;0.70;;
76196;SDS011;64974;53.144;17.962;2023-05-18T13:00:31;3.53;;;1.13;;
76196;SDS011;64974;53.144;17.962;2023-05-18T13:03:04;2.22;;;0.73;;
76196;SDS011;64974;53.144;17.962;2023-05-18T13:05:33;2.30;;;0.80;;
76196;SDS011;64974;53.144;17.962;2023-05-18T13:07:58;1.30;;;0.70;;
76196;SDS011;64974;53.144;17.962;2023-05-18T13:10:24;2.55;;;0.90;;
76196;SDS011;64974;53.144;17.962;2023-05-18T13:12:50;2.15;;;0.80;;
76196;SDS011;64974;53.144;17.962;2023-05-18T13:15:17;6.78;;;1.17;;
76196;SDS011;64974;53.144;17.962;2023-05-18T13:20:32;3.05;;;0.80;;
76196;SDS011;64974;53.144;17.962;2023-05-18T13:23:04;2.90;;;0.75;;
76196;SDS011;64974;53.144;17.962;2023-05-18T13:25:31;16.60;;;1.85;;
76196;SDS011;64974;53.144;17.962;2023-05-18T13:27:57;3.00;;;0.90;;
76196;SDS011;64974;53.144;17.962;2023-05-18T13:30:22;1.98;;;0.90;;
76196;SDS011;64974;53.144;17.962;2023-05-18T13:32:48;3.20;;;0.90;;
76196;SDS011;64974;53.144;17.962;2023-05-18T13:35:15;12.75;;;1.45;;
76196;SDS011;64974;53.144;17.962;2023-05-18T13:37:42;3.58;;;0.90;;
76196;SDS011;64974;53.144;17.962;2023-05-18T13:40:09;3.92;;;1.15;;
76196;SDS011;64974;53.144;17.962;2023-05-18T13:42:35;3.10;;;0.90;;
76196;SDS011;64974;53.144;17.962;2023-05-18T13:45:00;3.13;;;0.70;;
76196;SDS011;64974;53.144;17.962;2023-05-18T13:47:25;4.60;;;0.90;;
76196;SDS011;64974;53.144;17.962;2023-05-18T13:49:50;2.22;;;0.85;;
76196;SDS011;64974;53.144;17.962;2023-05-18T13:52:16;2.00;;;0.90;;
76196;SDS011;64974;53.144;17.962;2023-05-18T13:54:41;3.13;;;0.90;;
76196;SDS011;64974;53.144;17.962;2023-05-18T13:57:07;2.72;;;0.85;;
76196;SDS011;64974;53.144;17.962;2023-05-18T13:59:32;3.08;;;1.13;;
76196;SDS011;64974;53.144;17.962;2023-05-18T14:01:58;6.28;;;1.90;;
76196;SDS011;64974;53.144;17.962;2023-05-18T14:04:25;4.60;;;1.10;;
76196;SDS011;64974;53.144;17.962;2023-05-18T14:06:50;6.32;;;1.48;;
76196;SDS011;64974;53.144;17.962;2023-05-18T14:09:19;2.88;;;1.00;;
76196;SDS011;64974;53.144;17.962;2023-05-18T14:11:45;3.88;;;1.05;;
76196;SDS011;64974;53.144;17.962;2023-05-18T14:14:11;4.65;;;1.10;;
76196;SDS011;64974;53.144;17.962;2023-05-18T14:16:36;2.05;;;0.90;;
76196;SDS011;64974;53.144;17.962;2023-05-18T14:19:02;2.15;;;1.05;;
76196;SDS011;64974;53.144;17.962;2023-05-18T14:21:27;2.72;;;0.80;;
76196;SDS011;64974;53.144;17.962;2023-05-18T14:23:52;3.63;;;1.40;;
76196;SDS011;64974;53.144;17.962;2023-05-18T14:26:18;18.10;;;2.08;;
76196;SDS011;64974;53.144;17.962;2023-05-18T14:28:43;2.25;;;0.90;;
76196;SDS011;64974;53.144;17.962;2023-05-18T14:31:08;2.35;;;0.73;;
76196;SDS011;64974;53.144;17.962;2023-05-18T14:33:34;2.08;;;0.80;;
76196;SDS011;64974;53.144;17.962;2023-05-18T14:35:59;3.00;;;1.00;;
76196;SDS011;64974;53.144;17.962;2023-05-18T14:38:25;2.13;;;0.80;;
76196;SDS011;64974;53.144;17.962;2023-05-18T14:40:54;19.08;;;2.72;;
76196;SDS011;64974;53.144;17.962;2023-05-18T14:43:19;3.35;;;1.00;;
76196;SDS011;64974;53.144;17.962;2023-05-18T14:45:44;2.55;;;0.90;;
76196;SDS011;64974;53.144;17.962;2023-05-18T14:48:10;3.17;;;1.20;;
76196;SDS011;64974;53.144;17.962;2023-05-18T14:50:35;1.95;;;0.82;;
76196;SDS011;64974;53.144;17.962;2023-05-18T14:53:01;2.80;;;0.73;;
76196;SDS011;64974;53.144;17.962;2023-05-18T14:55:26;3.47;;;1.00;;
76196;SDS011;64974;53.144;17.962;2023-05-18T14:57:52;3.65;;;0.93;;
76196;SDS011;64974;53.144;17.962;2023-05-18T15:00:17;2.13;;;0.95;;
76196;SDS011;64974;53.144;17.962;2023-05-18T15:02:42;3.33;;;1.17;;
76196;SDS011;64974;53.144;17.962;2023-05-18T15:05:08;4.10;;;1.08;;
76196;SDS011;64974;53.144;17.962;2023-05-18T15:07:34;6.47;;;0.90;;
76196;SDS011;64974;53.144;17.962;2023-05-18T15:09:59;3.92;;;1.15;;
76196;SDS011;64974;53.144;17.962;2023-05-18T15:12:24;2.30;;;0.93;;
76196;SDS011;64974;53.144;17.962;2023-05-18T15:14:50;1.85;;;0.82;;